Terminal Aerodrome Forecast
Issued by NWS

Home | Current Version | Previous Version | Graphics & Text | Print | Product List | Glossary On
Versions: 1 2 3 4 5 6 7 8 9 10 11 12 13 14 15 16 17 18 19 20 21 22
000
FTUS43 KTOP 160520
TAFFOE
TAF
KFOE 160520Z 1606/1706 14006KT P6SM VCTS BKN090CB
      TEMPO 1610/1614 4SM TSRA OVC022CB
     FM161400 16008KT P6SM -SHRA VCTS OVC020CB
     FM161600 17008KT P6SM VCTS OVC050CB
     FM170200 28005KT P6SM BKN110=

USA.gov is the U.S. government's official web portal to all federal, state and local government web resources and services.